sensor_id;sensor_type;location;lat;lon;timestamp;P1;durP1;ratioP1;P2;durP2;ratioP2
68310;SDS011;55157;51.036;17.058;2022-10-26T00:01:03;18.92;;;9.48;;
68310;SDS011;55157;51.036;17.058;2022-10-26T00:03:28;24.73;;;12.80;;
68310;SDS011;55157;51.036;17.058;2022-10-26T00:05:55;19.85;;;9.43;;
68310;SDS011;55157;51.036;17.058;2022-10-26T00:08:25;11.55;;;7.93;;
68310;SDS011;55157;51.036;17.058;2022-10-26T00:10:51;13.15;;;7.30;;
68310;SDS011;55157;51.036;17.058;2022-10-26T00:13:16;14.82;;;9.15;;
68310;SDS011;55157;51.036;17.058;2022-10-26T00:15:41;14.27;;;7.57;;
68310;SDS011;55157;51.036;17.058;2022-10-26T00:18:07;18.20;;;8.70;;
68310;SDS011;55157;51.036;17.058;2022-10-26T00:20:32;22.90;;;9.45;;
68310;SDS011;55157;51.036;17.058;2022-10-26T00:22:59;17.00;;;8.57;;
68310;SDS011;55157;51.036;17.058;2022-10-26T00:25:24;20.45;;;8.95;;
68310;SDS011;55157;51.036;17.058;2022-10-26T00:27:49;17.48;;;9.65;;
68310;SDS011;55157;51.036;17.058;2022-10-26T00:30:15;18.58;;;8.93;;
68310;SDS011;55157;51.036;17.058;2022-10-26T00:32:40;14.27;;;6.88;;
68310;SDS011;55157;51.036;17.058;2022-10-26T00:35:05;13.00;;;7.85;;
68310;SDS011;55157;51.036;17.058;2022-10-26T00:37:31;11.95;;;6.75;;
68310;SDS011;55157;51.036;17.058;2022-10-26T00:39:58;17.13;;;8.57;;
68310;SDS011;55157;51.036;17.058;2022-10-26T00:42:23;15.30;;;8.35;;
68310;SDS011;55157;51.036;17.058;2022-10-26T00:47:33;11.35;;;5.90;;
68310;SDS011;55157;51.036;17.058;2022-10-26T00:50:00;17.55;;;7.68;;
68310;SDS011;55157;51.036;17.058;2022-10-26T00:52:26;18.50;;;7.07;;
68310;SDS011;55157;51.036;17.058;2022-10-26T00:54:52;12.65;;;6.50;;
68310;SDS011;55157;51.036;17.058;2022-10-26T00:57:19;14.93;;;7.20;;
68310;SDS011;55157;51.036;17.058;2022-10-26T00:59:45;11.27;;;5.95;;
68310;SDS011;55157;51.036;17.058;2022-10-26T01:02:10;9.57;;;5.85;;
68310;SDS011;55157;51.036;17.058;2022-10-26T01:04:36;11.65;;;6.32;;
68310;SDS011;55157;51.036;17.058;2022-10-26T01:07:02;13.15;;;6.53;;
68310;SDS011;55157;51.036;17.058;2022-10-26T01:09:27;15.05;;;6.07;;
68310;SDS011;55157;51.036;17.058;2022-10-26T01:11:53;10.25;;;6.07;;
68310;SDS011;55157;51.036;17.058;2022-10-26T01:14:20;15.43;;;6.43;;
68310;SDS011;55157;51.036;17.058;2022-10-26T01:16:49;12.13;;;6.10;;
68310;SDS011;55157;51.036;17.058;2022-10-26T01:19:30;18.02;;;7.35;;
68310;SDS011;55157;51.036;17.058;2022-10-26T01:22:01;17.60;;;7.47;;
68310;SDS011;55157;51.036;17.058;2022-10-26T01:24:41;14.82;;;7.15;;
68310;SDS011;55157;51.036;17.058;2022-10-26T01:27:21;14.65;;;6.55;;
68310;SDS011;55157;51.036;17.058;2022-10-26T01:32:28;37.70;;;13.40;;
68310;SDS011;55157;51.036;17.058;2022-10-26T01:34:56;27.75;;;11.02;;
68310;SDS011;55157;51.036;17.058;2022-10-26T01:37:25;31.15;;;12.52;;
68310;SDS011;55157;51.036;17.058;2022-10-26T01:39:53;18.25;;;8.18;;
68310;SDS011;55157;51.036;17.058;2022-10-26T01:42:20;37.10;;;13.43;;
68310;SDS011;55157;51.036;17.058;2022-10-26T01:44:47;27.48;;;12.80;;
68310;SDS011;55157;51.036;17.058;2022-10-26T01:47:13;21.70;;;9.13;;
68310;SDS011;55157;51.036;17.058;2022-10-26T01:49:43;18.10;;;7.78;;
68310;SDS011;55157;51.036;17.058;2022-10-26T01:52:09;20.38;;;8.73;;
68310;SDS011;55157;51.036;17.058;2022-10-26T01:54:35;18.67;;;8.38;;
68310;SDS011;55157;51.036;17.058;2022-10-26T01:57:01;15.15;;;7.25;;
68310;SDS011;55157;51.036;17.058;2022-10-26T02:02:23;11.85;;;6.43;;
68310;SDS011;55157;51.036;17.058;2022-10-26T02:04:57;15.85;;;6.65;;
68310;SDS011;55157;51.036;17.058;2022-10-26T02:07:27;15.57;;;6.80;;
68310;SDS011;55157;51.036;17.058;2022-10-26T02:09:58;11.27;;;5.82;;
68310;SDS011;55157;51.036;17.058;2022-10-26T02:12:27;20.52;;;6.50;;
68310;SDS011;55157;51.036;17.058;2022-10-26T02:14:56;14.73;;;6.38;;
68310;SDS011;55157;51.036;17.058;2022-10-26T02:17:26;12.32;;;7.22;;
68310;SDS011;55157;51.036;17.058;2022-10-26T02:19:52;10.05;;;5.07;;
68310;SDS011;55157;51.036;17.058;2022-10-26T02:22:21;16.52;;;6.03;;
68310;SDS011;55157;51.036;17.058;2022-10-26T02:24:49;8.35;;;5.65;;
68310;SDS011;55157;51.036;17.058;2022-10-26T02:27:16;7.80;;;5.45;;
68310;SDS011;55157;51.036;17.058;2022-10-26T02:29:42;9.88;;;6.20;;
68310;SDS011;55157;51.036;17.058;2022-10-26T02:32:08;9.75;;;5.95;;
68310;SDS011;55157;51.036;17.058;2022-10-26T02:34:33;11.63;;;5.72;;
68310;SDS011;55157;51.036;17.058;2022-10-26T02:36:59;11.02;;;6.03;;
68310;SDS011;55157;51.036;17.058;2022-10-26T02:39:28;10.07;;;5.80;;
68310;SDS011;55157;51.036;17.058;2022-10-26T02:41:53;10.10;;;5.60;;
68310;SDS011;55157;51.036;17.058;2022-10-26T02:44:20;9.63;;;6.13;;
68310;SDS011;55157;51.036;17.058;2022-10-26T02:46:47;14.00;;;5.78;;
68310;SDS011;55157;51.036;17.058;2022-10-26T02:49:12;10.52;;;7.05;;
68310;SDS011;55157;51.036;17.058;2022-10-26T02:51:38;12.07;;;6.63;;
68310;SDS011;55157;51.036;17.058;2022-10-26T02:54:07;8.27;;;6.15;;
68310;SDS011;55157;51.036;17.058;2022-10-26T02:56:39;11.25;;;6.65;;
68310;SDS011;55157;51.036;17.058;2022-10-26T02:59:07;9.30;;;6.18;;
68310;SDS011;55157;51.036;17.058;2022-10-26T03:01:33;9.95;;;5.20;;
68310;SDS011;55157;51.036;17.058;2022-10-26T03:03:59;13.52;;;8.05;;
68310;SDS011;55157;51.036;17.058;2022-10-26T03:06:24;19.15;;;8.77;;
68310;SDS011;55157;51.036;17.058;2022-10-26T03:08:50;18.17;;;7.95;;
68310;SDS011;55157;51.036;17.058;2022-10-26T03:11:15;17.95;;;7.63;;
68310;SDS011;55157;51.036;17.058;2022-10-26T03:13:42;19.20;;;7.40;;
68310;SDS011;55157;51.036;17.058;2022-10-26T03:16:07;17.23;;;8.13;;
68310;SDS011;55157;51.036;17.058;2022-10-26T03:18:33;17.73;;;8.07;;
68310;SDS011;55157;51.036;17.058;2022-10-26T03:20:58;12.00;;;6.88;;
68310;SDS011;55157;51.036;17.058;2022-10-26T03:23:23;14.90;;;7.85;;
68310;SDS011;55157;51.036;17.058;2022-10-26T03:25:48;16.45;;;8.50;;
68310;SDS011;55157;51.036;17.058;2022-10-26T03:28:14;14.57;;;8.20;;
68310;SDS011;55157;51.036;17.058;2022-10-26T03:30:40;17.00;;;9.40;;
68310;SDS011;55157;51.036;17.058;2022-10-26T03:33:06;23.70;;;14.25;;
68310;SDS011;55157;51.036;17.058;2022-10-26T03:35:31;17.70;;;11.35;;
68310;SDS011;55157;51.036;17.058;2022-10-26T03:37:56;24.67;;;15.20;;
68310;SDS011;55157;51.036;17.058;2022-10-26T03:40:22;23.10;;;12.32;;
68310;SDS011;55157;51.036;17.058;2022-10-26T03:42:47;12.43;;;8.77;;
68310;SDS011;55157;51.036;17.058;2022-10-26T03:45:12;18.83;;;8.05;;
68310;SDS011;55157;51.036;17.058;2022-10-26T03:47:43;16.15;;;8.75;;
68310;SDS011;55157;51.036;17.058;2022-10-26T03:50:08;13.35;;;8.43;;
68310;SDS011;55157;51.036;17.058;2022-10-26T03:52:33;18.08;;;8.93;;
68310;SDS011;55157;51.036;17.058;2022-10-26T03:54:59;16.67;;;8.77;;
68310;SDS011;55157;51.036;17.058;2022-10-26T03:57:24;14.45;;;9.05;;
68310;SDS011;55157;51.036;17.058;2022-10-26T03:59:49;11.85;;;8.60;;
68310;SDS011;55157;51.036;17.058;2022-10-26T04:02:15;12.95;;;7.13;;
68310;SDS011;55157;51.036;17.058;2022-10-26T04:04:41;15.23;;;7.40;;
68310;SDS011;55157;51.036;17.058;2022-10-26T04:07:07;19.10;;;9.82;;
68310;SDS011;55157;51.036;17.058;2022-10-26T04:09:32;15.52;;;8.50;;
68310;SDS011;55157;51.036;17.058;2022-10-26T04:11:57;13.80;;;8.07;;
68310;SDS011;55157;51.036;17.058;2022-10-26T04:14:22;19.95;;;10.65;;
68310;SDS011;55157;51.036;17.058;2022-10-26T04:16:48;15.80;;;8.45;;
68310;SDS011;55157;51.036;17.058;2022-10-26T04:19:13;26.10;;;10.75;;
68310;SDS011;55157;51.036;17.058;2022-10-26T04:21:40;28.67;;;12.05;;
68310;SDS011;55157;51.036;17.058;2022-10-26T04:24:05;143.45;;;45.95;;
68310;SDS011;55157;51.036;17.058;2022-10-26T04:26:30;156.88;;;47.05;;
68310;SDS011;55157;51.036;17.058;2022-10-26T04:28:56;102.93;;;34.80;;
68310;SDS011;55157;51.036;17.058;2022-10-26T04:31:21;95.65;;;29.23;;
68310;SDS011;55157;51.036;17.058;2022-10-26T04:33:46;63.38;;;21.27;;
68310;SDS011;55157;51.036;17.058;2022-10-26T04:36:11;48.78;;;17.65;;
68310;SDS011;55157;51.036;17.058;2022-10-26T04:38:38;33.30;;;13.98;;
68310;SDS011;55157;51.036;17.058;2022-10-26T04:41:04;47.88;;;15.48;;
68310;SDS011;55157;51.036;17.058;2022-10-26T04:43:29;58.13;;;20.25;;
68310;SDS011;55157;51.036;17.058;2022-10-26T04:45:54;53.63;;;18.52;;
68310;SDS011;55157;51.036;17.058;2022-10-26T04:48:20;67.65;;;21.83;;
68310;SDS011;55157;51.036;17.058;2022-10-26T04:50:45;70.90;;;22.80;;
68310;SDS011;55157;51.036;17.058;2022-10-26T04:53:10;84.78;;;27.75;;
68310;SDS011;55157;51.036;17.058;2022-10-26T04:55:37;98.35;;;32.08;;
68310;SDS011;55157;51.036;17.058;2022-10-26T04:58:02;41.17;;;14.95;;
68310;SDS011;55157;51.036;17.058;2022-10-26T05:00:28;39.13;;;14.07;;
68310;SDS011;55157;51.036;17.058;2022-10-26T05:02:57;32.65;;;13.93;;
68310;SDS011;55157;51.036;17.058;2022-10-26T05:05:22;33.90;;;15.27;;
68310;SDS011;55157;51.036;17.058;2022-10-26T05:07:52;36.75;;;15.40;;
68310;SDS011;55157;51.036;17.058;2022-10-26T05:10:17;43.78;;;16.65;;
68310;SDS011;55157;51.036;17.058;2022-10-26T05:12:44;38.60;;;14.82;;
68310;SDS011;55157;51.036;17.058;2022-10-26T05:15:14;36.85;;;12.20;;
68310;SDS011;55157;51.036;17.058;2022-10-26T05:17:39;28.80;;;10.30;;
68310;SDS011;55157;51.036;17.058;2022-10-26T05:20:05;27.17;;;10.15;;
68310;SDS011;55157;51.036;17.058;2022-10-26T05:22:30;30.95;;;11.60;;
68310;SDS011;55157;51.036;17.058;2022-10-26T05:24:56;25.27;;;9.63;;
68310;SDS011;55157;51.036;17.058;2022-10-26T05:27:21;23.70;;;9.52;;
68310;SDS011;55157;51.036;17.058;2022-10-26T05:29:48;28.85;;;10.70;;
68310;SDS011;55157;51.036;17.058;2022-10-26T05:32:13;25.75;;;11.65;;
68310;SDS011;55157;51.036;17.058;2022-10-26T05:34:38;29.27;;;10.13;;
68310;SDS011;55157;51.036;17.058;2022-10-26T05:37:03;35.05;;;11.98;;
68310;SDS011;55157;51.036;17.058;2022-10-26T05:39:29;18.52;;;7.95;;
68310;SDS011;55157;51.036;17.058;2022-10-26T05:41:54;32.00;;;10.45;;
68310;SDS011;55157;51.036;17.058;2022-10-26T05:44:19;28.60;;;8.98;;
68310;SDS011;55157;51.036;17.058;2022-10-26T05:46:46;26.77;;;8.30;;
68310;SDS011;55157;51.036;17.058;2022-10-26T05:49:11;23.88;;;8.23;;
68310;SDS011;55157;51.036;17.058;2022-10-26T05:51:37;29.08;;;8.07;;
68310;SDS011;55157;51.036;17.058;2022-10-26T05:54:02;21.13;;;8.43;;
68310;SDS011;55157;51.036;17.058;2022-10-26T05:56:32;22.45;;;9.73;;
68310;SDS011;55157;51.036;17.058;2022-10-26T05:58:58;21.88;;;8.45;;
68310;SDS011;55157;51.036;17.058;2022-10-26T06:01:25;33.30;;;9.25;;
68310;SDS011;55157;51.036;17.058;2022-10-26T06:03:59;30.50;;;9.50;;
68310;SDS011;55157;51.036;17.058;2022-10-26T06:06:25;19.35;;;8.57;;
68310;SDS011;55157;51.036;17.058;2022-10-26T06:08:52;32.60;;;9.63;;
68310;SDS011;55157;51.036;17.058;2022-10-26T06:11:17;20.98;;;9.50;;
68310;SDS011;55157;51.036;17.058;2022-10-26T06:13:43;20.58;;;9.32;;
68310;SDS011;55157;51.036;17.058;2022-10-26T06:16:13;26.38;;;8.73;;
68310;SDS011;55157;51.036;17.058;2022-10-26T06:18:46;19.73;;;9.23;;
68310;SDS011;55157;51.036;17.058;2022-10-26T06:21:19;28.02;;;8.50;;
68310;SDS011;55157;51.036;17.058;2022-10-26T06:23:47;18.30;;;8.32;;
68310;SDS011;55157;51.036;17.058;2022-10-26T06:26:18;22.40;;;8.43;;
68310;SDS011;55157;51.036;17.058;2022-10-26T06:28:46;25.63;;;8.32;;
68310;SDS011;55157;51.036;17.058;2022-10-26T06:31:14;17.52;;;8.10;;
68310;SDS011;55157;51.036;17.058;2022-10-26T06:33:39;25.23;;;7.30;;
68310;SDS011;55157;51.036;17.058;2022-10-26T06:36:08;17.58;;;8.90;;
68310;SDS011;55157;51.036;17.058;2022-10-26T06:38:39;21.37;;;8.27;;
68310;SDS011;55157;51.036;17.058;2022-10-26T06:41:05;18.30;;;8.07;;
68310;SDS011;55157;51.036;17.058;2022-10-26T06:43:31;12.68;;;8.20;;
68310;SDS011;55157;51.036;17.058;2022-10-26T06:45:59;13.10;;;7.00;;
68310;SDS011;55157;51.036;17.058;2022-10-26T06:48:27;13.93;;;7.00;;
68310;SDS011;55157;51.036;17.058;2022-10-26T06:50:53;15.95;;;7.75;;
68310;SDS011;55157;51.036;17.058;2022-10-26T06:53:20;14.38;;;6.45;;
68310;SDS011;55157;51.036;17.058;2022-10-26T06:55:49;23.33;;;9.50;;
68310;SDS011;55157;51.036;17.058;2022-10-26T06:58:15;22.20;;;8.57;;
68310;SDS011;55157;51.036;17.058;2022-10-26T07:00:41;21.02;;;7.82;;
68310;SDS011;55157;51.036;17.058;2022-10-26T07:03:06;22.25;;;7.63;;
68310;SDS011;55157;51.036;17.058;2022-10-26T07:05:32;18.42;;;8.00;;
68310;SDS011;55157;51.036;17.058;2022-10-26T07:07:57;36.10;;;8.35;;
68310;SDS011;55157;51.036;17.058;2022-10-26T07:10:23;16.45;;;7.63;;
68310;SDS011;55157;51.036;17.058;2022-10-26T07:12:49;15.40;;;7.00;;
68310;SDS011;55157;51.036;17.058;2022-10-26T07:15:15;17.52;;;6.93;;
68310;SDS011;55157;51.036;17.058;2022-10-26T07:17:43;16.73;;;7.70;;
68310;SDS011;55157;51.036;17.058;2022-10-26T07:20:09;15.80;;;6.53;;
68310;SDS011;55157;51.036;17.058;2022-10-26T07:22:35;13.23;;;6.78;;
68310;SDS011;55157;51.036;17.058;2022-10-26T07:25:00;16.90;;;6.75;;
68310;SDS011;55157;51.036;17.058;2022-10-26T07:27:25;11.45;;;6.03;;
68310;SDS011;55157;51.036;17.058;2022-10-26T07:29:52;13.80;;;6.05;;
68310;SDS011;55157;51.036;17.058;2022-10-26T07:32:17;13.35;;;7.47;;
68310;SDS011;55157;51.036;17.058;2022-10-26T07:34:42;28.35;;;8.10;;
68310;SDS011;55157;51.036;17.058;2022-10-26T07:37:08;13.73;;;6.97;;
68310;SDS011;55157;51.036;17.058;2022-10-26T07:39:33;13.15;;;7.32;;
68310;SDS011;55157;51.036;17.058;2022-10-26T07:41:58;15.27;;;8.45;;
68310;SDS011;55157;51.036;17.058;2022-10-26T07:44:23;11.80;;;5.78;;
68310;SDS011;55157;51.036;17.058;2022-10-26T07:46:50;16.70;;;6.32;;
68310;SDS011;55157;51.036;17.058;2022-10-26T07:49:15;7.95;;;4.63;;
68310;SDS011;55157;51.036;17.058;2022-10-26T07:51:41;9.15;;;3.75;;
68310;SDS011;55157;51.036;17.058;2022-10-26T07:54:06;16.75;;;5.07;;
68310;SDS011;55157;51.036;17.058;2022-10-26T07:56:31;10.82;;;5.35;;
68310;SDS011;55157;51.036;17.058;2022-10-26T07:58:57;11.40;;;4.50;;
68310;SDS011;55157;51.036;17.058;2022-10-26T08:01:22;12.48;;;5.07;;
68310;SDS011;55157;51.036;17.058;2022-10-26T08:03:50;19.10;;;6.00;;
68310;SDS011;55157;51.036;17.058;2022-10-26T08:06:15;11.75;;;4.20;;
68310;SDS011;55157;51.036;17.058;2022-10-26T08:08:40;13.80;;;4.38;;
68310;SDS011;55157;51.036;17.058;2022-10-26T08:11:06;11.70;;;4.32;;
68310;SDS011;55157;51.036;17.058;2022-10-26T08:13:31;13.82;;;5.20;;
68310;SDS011;55157;51.036;17.058;2022-10-26T08:15:56;8.98;;;4.82;;
68310;SDS011;55157;51.036;17.058;2022-10-26T08:18:21;13.50;;;5.07;;
68310;SDS011;55157;51.036;17.058;2022-10-26T08:20:48;20.25;;;5.80;;
68310;SDS011;55157;51.036;17.058;2022-10-26T08:23:13;10.52;;;4.93;;
68310;SDS011;55157;51.036;17.058;2022-10-26T08:25:39;9.82;;;4.85;;
68310;SDS011;55157;51.036;17.058;2022-10-26T08:28:04;8.52;;;4.97;;
68310;SDS011;55157;51.036;17.058;2022-10-26T08:30:29;11.40;;;5.38;;
68310;SDS011;55157;51.036;17.058;2022-10-26T08:32:58;8.98;;;4.22;;
68310;SDS011;55157;51.036;17.058;2022-10-26T08:35:24;10.65;;;4.10;;
68310;SDS011;55157;51.036;17.058;2022-10-26T08:37:50;7.85;;;4.07;;
68310;SDS011;55157;51.036;17.058;2022-10-26T08:40:16;11.52;;;4.88;;
68310;SDS011;55157;51.036;17.058;2022-10-26T08:42:42;6.80;;;3.30;;
68310;SDS011;55157;51.036;17.058;2022-10-26T08:45:09;13.68;;;3.80;;
68310;SDS011;55157;51.036;17.058;2022-10-26T08:47:38;10.57;;;4.53;;
68310;SDS011;55157;51.036;17.058;2022-10-26T08:50:05;6.63;;;4.00;;
68310;SDS011;55157;51.036;17.058;2022-10-26T08:52:35;9.98;;;4.50;;
68310;SDS011;55157;51.036;17.058;2022-10-26T08:55:03;4.97;;;3.30;;
68310;SDS011;55157;51.036;17.058;2022-10-26T08:57:32;7.68;;;3.88;;
68310;SDS011;55157;51.036;17.058;2022-10-26T09:00:00;11.63;;;4.60;;
68310;SDS011;55157;51.036;17.058;2022-10-26T09:02:27;15.32;;;5.25;;
68310;SDS011;55157;51.036;17.058;2022-10-26T09:04:52;16.98;;;4.35;;
68310;SDS011;55157;51.036;17.058;2022-10-26T09:07:23;7.70;;;4.20;;
68310;SDS011;55157;51.036;17.058;2022-10-26T09:09:52;14.63;;;4.18;;
68310;SDS011;55157;51.036;17.058;2022-10-26T09:12:25;18.33;;;4.85;;
68310;SDS011;55157;51.036;17.058;2022-10-26T09:14:55;12.05;;;4.57;;
68310;SDS011;55157;51.036;17.058;2022-10-26T09:17:27;13.57;;;4.15;;
68310;SDS011;55157;51.036;17.058;2022-10-26T09:20:01;12.07;;;4.22;;
68310;SDS011;55157;51.036;17.058;2022-10-26T09:22:31;8.10;;;3.67;;
68310;SDS011;55157;51.036;17.058;2022-10-26T09:24:58;7.15;;;3.38;;
68310;SDS011;55157;51.036;17.058;2022-10-26T09:27:29;10.25;;;3.85;;
68310;SDS011;55157;51.036;17.058;2022-10-26T09:29:55;15.07;;;4.30;;
68310;SDS011;55157;51.036;17.058;2022-10-26T09:32:22;10.10;;;4.03;;
68310;SDS011;55157;51.036;17.058;2022-10-26T09:34:49;12.25;;;4.45;;
68310;SDS011;55157;51.036;17.058;2022-10-26T09:37:17;7.38;;;4.47;;
68310;SDS011;55157;51.036;17.058;2022-10-26T09:39:45;8.85;;;4.50;;
68310;SDS011;55157;51.036;17.058;2022-10-26T09:42:13;9.25;;;4.53;;
68310;SDS011;55157;51.036;17.058;2022-10-26T09:44:43;8.13;;;3.92;;
68310;SDS011;55157;51.036;17.058;2022-10-26T09:47:12;6.15;;;3.50;;
68310;SDS011;55157;51.036;17.058;2022-10-26T09:49:42;8.73;;;3.90;;
68310;SDS011;55157;51.036;17.058;2022-10-26T09:52:09;11.20;;;3.88;;
68310;SDS011;55157;51.036;17.058;2022-10-26T09:54:34;9.40;;;3.53;;
68310;SDS011;55157;51.036;17.058;2022-10-26T09:57:00;13.38;;;4.13;;
68310;SDS011;55157;51.036;17.058;2022-10-26T09:59:25;10.85;;;4.20;;
68310;SDS011;55157;51.036;17.058;2022-10-26T10:01:52;12.05;;;3.83;;
68310;SDS011;55157;51.036;17.058;2022-10-26T10:04:18;9.15;;;3.85;;
68310;SDS011;55157;51.036;17.058;2022-10-26T10:06:44;12.50;;;3.67;;
68310;SDS011;55157;51.036;17.058;2022-10-26T10:09:10;12.70;;;4.47;;
68310;SDS011;55157;51.036;17.058;2022-10-26T10:11:36;9.18;;;3.08;;
68310;SDS011;55157;51.036;17.058;2022-10-26T10:14:04;9.90;;;3.13;;
68310;SDS011;55157;51.036;17.058;2022-10-26T10:16:30;9.25;;;3.20;;
68310;SDS011;55157;51.036;17.058;2022-10-26T10:18:57;6.43;;;3.45;;
68310;SDS011;55157;51.036;17.058;2022-10-26T10:21:30;11.70;;;4.18;;
68310;SDS011;55157;51.036;17.058;2022-10-26T10:23:56;15.52;;;4.40;;
68310;SDS011;55157;51.036;17.058;2022-10-26T10:26:22;7.95;;;3.83;;
68310;SDS011;55157;51.036;17.058;2022-10-26T10:28:55;13.38;;;3.53;;
68310;SDS011;55157;51.036;17.058;2022-10-26T10:31:21;13.95;;;5.63;;
68310;SDS011;55157;51.036;17.058;2022-10-26T10:33:46;9.75;;;2.90;;
68310;SDS011;55157;51.036;17.058;2022-10-26T10:36:14;11.55;;;3.70;;
68310;SDS011;55157;51.036;17.058;2022-10-26T10:38:40;15.10;;;3.78;;
68310;SDS011;55157;51.036;17.058;2022-10-26T10:41:13;14.95;;;3.92;;
68310;SDS011;55157;51.036;17.058;2022-10-26T10:43:41;9.27;;;3.33;;
68310;SDS011;55157;51.036;17.058;2022-10-26T10:46:07;11.25;;;3.40;;
68310;SDS011;55157;51.036;17.058;2022-10-26T10:48:32;8.05;;;4.00;;
68310;SDS011;55157;51.036;17.058;2022-10-26T10:50:58;14.98;;;3.60;;
68310;SDS011;55157;51.036;17.058;2022-10-26T10:53:33;30.25;;;4.35;;
68310;SDS011;55157;51.036;17.058;2022-10-26T10:56:08;11.27;;;3.05;;
68310;SDS011;55157;51.036;17.058;2022-10-26T10:58:39;10.10;;;2.60;;
68310;SDS011;55157;51.036;17.058;2022-10-26T11:01:08;5.53;;;2.33;;
68310;SDS011;55157;51.036;17.058;2022-10-26T11:03:39;4.45;;;2.15;;
68310;SDS011;55157;51.036;17.058;2022-10-26T11:06:09;8.05;;;2.88;;
68310;SDS011;55157;51.036;17.058;2022-10-26T11:08:39;7.28;;;3.35;;
68310;SDS011;55157;51.036;17.058;2022-10-26T11:11:07;8.63;;;2.35;;
68310;SDS011;55157;51.036;17.058;2022-10-26T11:13:34;8.32;;;3.75;;
68310;SDS011;55157;51.036;17.058;2022-10-26T11:16:02;9.13;;;2.13;;
68310;SDS011;55157;51.036;17.058;2022-10-26T11:18:29;6.65;;;1.90;;
68310;SDS011;55157;51.036;17.058;2022-10-26T11:20:57;5.75;;;1.40;;
68310;SDS011;55157;51.036;17.058;2022-10-26T11:23:27;4.50;;;1.70;;
68310;SDS011;55157;51.036;17.058;2022-10-26T11:25:56;3.45;;;1.35;;
68310;SDS011;55157;51.036;17.058;2022-10-26T11:28:27;12.23;;;2.10;;
68310;SDS011;55157;51.036;17.058;2022-10-26T11:30:56;9.27;;;2.13;;
68310;SDS011;55157;51.036;17.058;2022-10-26T11:33:24;6.63;;;1.80;;
68310;SDS011;55157;51.036;17.058;2022-10-26T11:35:51;7.50;;;1.83;;
68310;SDS011;55157;51.036;17.058;2022-10-26T11:38:20;5.47;;;1.77;;
68310;SDS011;55157;51.036;17.058;2022-10-26T11:40:49;5.07;;;1.30;;
68310;SDS011;55157;51.036;17.058;2022-10-26T11:43:17;4.88;;;2.40;;
68310;SDS011;55157;51.036;17.058;2022-10-26T11:45:49;6.43;;;1.95;;
68310;SDS011;55157;51.036;17.058;2022-10-26T11:48:16;6.22;;;2.00;;
68310;SDS011;55157;51.036;17.058;2022-10-26T11:50:43;4.30;;;2.03;;
68310;SDS011;55157;51.036;17.058;2022-10-26T11:53:10;5.30;;;2.08;;
68310;SDS011;55157;51.036;17.058;2022-10-26T11:55:36;6.55;;;1.80;;
68310;SDS011;55157;51.036;17.058;2022-10-26T11:58:02;10.27;;;2.17;;
68310;SDS011;55157;51.036;17.058;2022-10-26T12:00:30;7.35;;;2.10;;
68310;SDS011;55157;51.036;17.058;2022-10-26T12:02:57;4.63;;;1.90;;
68310;SDS011;55157;51.036;17.058;2022-10-26T12:05:31;10.75;;;1.77;;
68310;SDS011;55157;51.036;17.058;2022-10-26T12:07:57;7.35;;;1.75;;
68310;SDS011;55157;51.036;17.058;2022-10-26T12:10:25;5.18;;;1.73;;
68310;SDS011;55157;51.036;17.058;2022-10-26T12:12:53;4.80;;;2.00;;
68310;SDS011;55157;51.036;17.058;2022-10-26T12:15:21;5.47;;;2.25;;
68310;SDS011;55157;51.036;17.058;2022-10-26T12:17:50;11.25;;;5.88;;
68310;SDS011;55157;51.036;17.058;2022-10-26T12:20:29;6.13;;;2.28;;
68310;SDS011;55157;51.036;17.058;2022-10-26T12:23:03;7.68;;;1.73;;
68310;SDS011;55157;51.036;17.058;2022-10-26T12:25:28;10.15;;;2.05;;
68310;SDS011;55157;51.036;17.058;2022-10-26T12:27:54;5.70;;;1.83;;
68310;SDS011;55157;51.036;17.058;2022-10-26T12:30:24;6.45;;;1.60;;
68310;SDS011;55157;51.036;17.058;2022-10-26T12:32:54;6.03;;;2.08;;
68310;SDS011;55157;51.036;17.058;2022-10-26T12:35:38;16.90;;;2.97;;
68310;SDS011;55157;51.036;17.058;2022-10-26T12:40:48;5.70;;;1.75;;
68310;SDS011;55157;51.036;17.058;2022-10-26T12:43:32;6.97;;;2.22;;
68310;SDS011;55157;51.036;17.058;2022-10-26T12:48:44;6.70;;;2.25;;
68310;SDS011;55157;51.036;17.058;2022-10-26T12:51:17;4.78;;;1.67;;
68310;SDS011;55157;51.036;17.058;2022-10-26T12:56:08;10.50;;;2.42;;
68310;SDS011;55157;51.036;17.058;2022-10-26T13:01:37;6.80;;;1.77;;
68310;SDS011;55157;51.036;17.058;2022-10-26T13:04:10;4.30;;;1.75;;
68310;SDS011;55157;51.036;17.058;2022-10-26T13:06:45;6.55;;;1.92;;
68310;SDS011;55157;51.036;17.058;2022-10-26T13:09:13;5.68;;;2.30;;
68310;SDS011;55157;51.036;17.058;2022-10-26T13:11:42;6.72;;;1.80;;
68310;SDS011;55157;51.036;17.058;2022-10-26T13:14:19;5.50;;;1.70;;
68310;SDS011;55157;51.036;17.058;2022-10-26T13:16:45;6.25;;;1.55;;
68310;SDS011;55157;51.036;17.058;2022-10-26T13:19:22;6.43;;;1.70;;
68310;SDS011;55157;51.036;17.058;2022-10-26T13:21:47;11.05;;;1.90;;
68310;SDS011;55157;51.036;17.058;2022-10-26T13:24:13;7.50;;;1.88;;
68310;SDS011;55157;51.036;17.058;2022-10-26T13:29:19;8.02;;;2.00;;
68310;SDS011;55157;51.036;17.058;2022-10-26T13:31:53;4.25;;;1.75;;
68310;SDS011;55157;51.036;17.058;2022-10-26T13:34:19;4.72;;;2.05;;
68310;SDS011;55157;51.036;17.058;2022-10-26T13:36:49;3.60;;;1.52;;
68310;SDS011;55157;51.036;17.058;2022-10-26T13:39:16;6.68;;;2.15;;
68310;SDS011;55157;51.036;17.058;2022-10-26T13:41:42;6.22;;;2.22;;
68310;SDS011;55157;51.036;17.058;2022-10-26T13:44:12;8.40;;;2.53;;
68310;SDS011;55157;51.036;17.058;2022-10-26T14:19:44;298.88;;;20.77;;
68310;SDS011;55157;51.036;17.058;2022-10-26T14:22:13;10.43;;;2.17;;
68310;SDS011;55157;51.036;17.058;2022-10-26T14:24:40;15.20;;;3.25;;
68310;SDS011;55157;51.036;17.058;2022-10-26T14:27:14;11.90;;;3.50;;
68310;SDS011;55157;51.036;17.058;2022-10-26T14:29:40;30.10;;;4.15;;
68310;SDS011;55157;51.036;17.058;2022-10-26T14:32:18;16.85;;;2.30;;
68310;SDS011;55157;51.036;17.058;2022-10-26T14:34:45;5.97;;;2.17;;
68310;SDS011;55157;51.036;17.058;2022-10-26T14:37:10;11.40;;;3.15;;
68310;SDS011;55157;51.036;17.058;2022-10-26T14:39:40;13.88;;;2.45;;
68310;SDS011;55157;51.036;17.058;2022-10-26T14:42:09;14.55;;;2.60;;
68310;SDS011;55157;51.036;17.058;2022-10-26T14:44:37;10.73;;;2.40;;
68310;SDS011;55157;51.036;17.058;2022-10-26T14:47:03;18.88;;;2.67;;
68310;SDS011;55157;51.036;17.058;2022-10-26T14:49:28;20.92;;;3.70;;
68310;SDS011;55157;51.036;17.058;2022-10-26T14:51:56;12.60;;;2.60;;
68310;SDS011;55157;51.036;17.058;2022-10-26T14:54:23;12.60;;;2.90;;
68310;SDS011;55157;51.036;17.058;2022-10-26T14:56:48;20.02;;;4.53;;
68310;SDS011;55157;51.036;17.058;2022-10-26T14:59:18;11.45;;;2.90;;
68310;SDS011;55157;51.036;17.058;2022-10-26T15:01:48;12.70;;;2.85;;
68310;SDS011;55157;51.036;17.058;2022-10-26T15:04:21;27.73;;;4.22;;
68310;SDS011;55157;51.036;17.058;2022-10-26T15:06:50;22.73;;;2.92;;
68310;SDS011;55157;51.036;17.058;2022-10-26T15:09:30;17.33;;;2.58;;
68310;SDS011;55157;51.036;17.058;2022-10-26T15:11:55;14.93;;;2.63;;
68310;SDS011;55157;51.036;17.058;2022-10-26T15:14:20;18.58;;;2.58;;
68310;SDS011;55157;51.036;17.058;2022-10-26T15:16:49;23.20;;;3.13;;
68310;SDS011;55157;51.036;17.058;2022-10-26T15:19:15;20.70;;;2.67;;